Lost Springs, WY (82224)

1:24 AM MST on January 21, 2018 (GMT -0700)
MAT047 | | Change Station
Active Advisory: Winter Storm Warning

Elev 4723 ft 43.18 °N, 105.25 °W | Updated 17 minutes ago

Overcast
Overcast
27.0 °F
Feels Like 18 °F
N
9.0
Wind Variable Wind from NNE
Gusts 11.0 mph

Today
High -- | Low -- °F
--% Chance of Precip.
Yesterday
High -- | Low -- °F
Precip. -- in
Pressure 29.92 in
Visibility 2.0 miles
Clouds Mostly Cloudy 1700 ft
Overcast 4800 ft
Windchill 18 °F
Dew Point 23 °F
Humidity 85%
Rainfall 0.11 in
Snow Depth Not available.
7:24 AM 4:57 PM
Waxing Crescent, 16% visible
SPECI KDGW 210819Z AUTO 36007KT 2SM -SN BR BKN017 OVC048 M04/M04 A2992 RMK AO2 P0000 T10391044
Pressure 29.92 in
Visibility 2.0 miles
Clouds Mostly Cloudy 1700 ft
Overcast 4800 ft
Windchill 18 °F
Dew Point 23 °F
Humidity 85%
Rainfall 0.11 in
Snow Depth Not available.
7:24 AM 4:57 PM
Waxing Crescent, 16% visible
SPECI KDGW 210819Z AUTO 36007KT 2SM -SN BR BKN017 OVC048 M04/M04 A2992 RMK AO2 P0000 T10391044

Get Your Daily Forecast Email!

Thanks for signing up!

Be on the lookout for a verification email in your inbox.

You'll start receiving severe weather alerts in your inbox..

×

10-Day Weather Forecast

Almanac

Astronomy

Jan. 21, 2018 Rise Set
Actual Time
Civil Twilight
Nautical Twilight
Astronomical Twilight
Moon
Length of Visible Light
Length of Day
Tomorrow will be .
, % of the Moon is Illuminated

Today's Extremes

State Highs State Lows

Community

WunderPhotos

Category 6

Welcome to Category 6. This is the collective home for Weather Underground's featured writeups by Dr. Jeff Masters (right), Bob Henson (left), Chris Burt, and other regular contributors.

Nearby

Air Quality

  Air Quality AQ Index Pollutant
Not available.

Snow Depth

Station Depth Elevation

Earthquake Activity

City Distance Mag. Time & Date
Minimum magnitude displayed is 2.5.

Coastal Water Temperatures

Place Temperature

Stations

Nearby Weather Stations

Station Location Temp. Windchill Dew Point Humidity Wind Precip. Elev Updated Type
                   

Watches & Warnings

Winter Storm Warning
Issued: 1:09 PM MST Jan. 20, 2018 – National Weather Service

... Winter Storm Warning remains in effect until 2 PM MST Sunday...

* what... heavy snow expected. Plan on difficult travel
conditions. Total snow accumulations of 8 to 11 inches, with
localized amounts up to 13 inches, are expected.

* Where... Guernsey, Lusk, Wheatland, Whitaker, and surrounding
communities.

* When... 2 PM today to 2 PM Sunday.

* Additional details... winds gusting as high as 30 mph will
cause patchy blowing and drifting snow.

Precautionary/preparedness actions...

A Winter Storm Warning for snow means severe winter weather
conditions are expected. If you must travel, keep an extra
flashlight, food and water in your vehicle in case of an
emergency. The latest Road conditions for the state you are
calling from can be obtained by calling 5 1 1.